Time;durP1;ratioP1;P1;durP2;ratioP2;P2;SDS_P1;SDS_P2;PMS_P1;PMS_P2;Temp;Humidity;BMP_temperature;BMP_pressure;BME280_temperature;BME280_humidity;BME280_pressure;Samples;Min_cycle;Max_cycle;Signal;HPM_P1;HPM_P2
2021/07/20 00:01:06;;;;;;;;;13.25;13.25;;;;;26.11;47.79;101526.31;4984264;28;45424;-95
2021/07/20 00:03:32;;;;;;;;;19.50;16.50;;;;;26.07;47.68;101524.78;4995936;28;47298;-93
2021/07/20 00:05:57;;;;;;;;;15.25;15.00;;;;;26.06;47.75;101524.84;4977744;28;45270;-94
2021/07/20 00:08:23;;;;;;;;;16.00;14.00;;;;;26.04;48.32;101524.94;4979641;28;44722;-94
2021/07/20 00:10:52;;;;;;;;;15.25;14.50;;;;;26.02;47.46;101528.69;4979330;28;44869;-93
2021/07/20 00:13:18;;;;;;;;;17.50;15.00;;;;;25.99;48.01;101529.72;4979386;28;46856;-94
2021/07/20 00:15:46;;;;;;;;;18.25;17.00;;;;;25.95;48.12;101522.75;4976161;28;45380;-93
2021/07/20 00:18:14;;;;;;;;;14.75;14.75;;;;;25.91;48.13;101522.06;4978691;28;44707;-94
2021/07/20 00:20:41;;;;;;;;;16.00;16.00;;;;;25.88;48.49;101524.06;4977269;28;44935;-94
2021/07/20 00:23:08;;;;;;;;;16.75;15.00;;;;;25.80;48.69;101513.66;4994383;28;47215;-94
2021/07/20 00:25:36;;;;;;;;;15.75;14.50;;;;;25.79;48.38;101516.44;4991112;28;45318;-94
2021/07/20 00:28:03;;;;;;;;;17.25;16.75;;;;;25.74;48.77;101517.56;4994195;28;45464;-94
2021/07/20 00:30:29;;;;;;;;;16.25;16.25;;;;;25.78;49.11;101523.66;4990843;28;44768;-94
2021/07/20 00:32:58;;;;;;;;;15.25;15.00;;;;;25.77;48.83;101521.03;4993620;28;47129;-93
2021/07/20 00:35:23;;;;;;;;;15.75;14.75;;;;;25.73;48.75;101512.25;4992557;28;45343;-94
2021/07/20 00:37:50;;;;;;;;;16.50;14.75;;;;;25.68;48.77;101512.50;4995090;28;45419;-93
2021/07/20 00:40:18;;;;;;;;;14.00;13.00;;;;;25.65;48.87;101511.81;4990946;28;45703;-93
2021/07/20 00:42:45;;;;;;;;;17.25;14.50;;;;;25.64;49.15;101510.94;4991655;28;46963;-95
2021/07/20 00:45:13;;;;;;;;;15.25;15.25;;;;;25.65;49.04;101512.66;4990634;28;44831;-94
2021/07/20 00:47:39;;;;;;;;;16.75;16.75;;;;;25.60;48.99;101509.34;4990656;28;44754;-93
2021/07/20 00:50:07;;;;;;;;;15.00;14.25;;;;;25.53;49.46;101505.28;4989772;28;44810;-93
2021/07/20 00:52:33;;;;;;;;;13.75;13.75;;;;;25.56;49.28;101518.56;4990646;28;47262;-94
2021/07/20 00:54:59;;;;;;;;;18.50;17.00;;;;;25.52;48.82;101512.47;4989431;28;45730;-94
2021/07/20 00:57:25;;;;;;;;;16.75;16.25;;;;;25.45;49.17;101504.81;4990996;28;45186;-95
2021/07/20 00:59:53;;;;;;;;;16.25;14.50;;;;;25.43;49.01;101514.81;4989463;28;44902;-95
2021/07/20 01:02:22;;;;;;;;;13.75;13.75;;;;;25.41;49.75;101503.22;4990567;28;47196;-94
2021/07/20 01:04:53;;;;;;;;;16.25;16.00;;;;;25.44;49.54;101520.09;4991016;28;45353;-94
2021/07/20 01:07:51;;;;;;;;;;;;;;;;;;;;;
2021/07/20 01:10:19;;;;;;;;;15.00;14.00;;;;;25.34;49.67;101510.78;4988460;28;71749;-94
2021/07/20 01:12:45;;;;;;;;;14.75;14.00;;;;;25.35;49.75;101515.22;4991150;28;47193;-93
2021/07/20 01:15:13;;;;;;;;;15.25;14.75;;;;;25.29;49.93;101512.84;4987587;28;45179;-94
2021/07/20 01:17:44;;;;;;;;;20.00;16.25;;;;;25.26;49.89;101510.28;4990665;28;45549;-94
2021/07/20 01:20:28;;;;;;;;;;;;;;;;;;;;;
2021/07/20 01:23:19;;;;;;;;;;;;;;;;;;;;;
2021/07/20 01:26:00;;;;;;;;;;;;;;;;;;;;;
2021/07/20 01:28:30;;;;;;;;;17.25;16.50;;;;;25.20;50.09;101516.00;4988547;28;68790;-95
2021/07/20 01:31:05;;;;;;;;;15.00;13.50;;;;;25.17;50.18;101517.03;4971716;28;45522;-94
2021/07/20 01:33:32;;;;;;;;;14.25;13.25;;;;;25.14;49.97;101522.56;4972413;28;46732;-95
2021/07/20 01:36:04;;;;;;;;;16.25;15.50;;;;;25.08;50.36;101517.50;4972217;28;45174;-94
2021/07/20 01:38:31;;;;;;;;;15.75;15.25;;;;;25.09;50.43;101519.25;4971862;28;45342;-94
2021/07/20 01:41:01;;;;;;;;;15.25;14.50;;;;;25.04;50.54;101521.28;4973212;28;45719;-94
2021/07/20 01:43:28;;;;;;;;;16.75;15.50;;;;;25.00;50.48;101515.22;4971935;28;46775;-94
2021/07/20 01:45:56;;;;;;;;;15.50;15.00;;;;;24.97;50.19;101517.19;4973427;28;45332;-95
2021/07/20 01:48:29;;;;;;;;;16.25;14.25;;;;;24.98;51.04;101525.19;4971190;28;45345;-94
2021/07/20 01:51:06;;;;;;;;;;;;;;;;;;;;;
2021/07/20 01:53:35;;;;;;;;;15.25;15.00;;;;;24.87;51.07;101520.34;4989765;28;74364;-94
2021/07/20 01:56:03;;;;;;;;;14.75;14.00;;;;;24.86;51.12;101521.31;4980779;28;45781;-94
2021/07/20 01:58:30;;;;;;;;;16.50;16.00;;;;;24.82;51.30;101518.84;4981990;28;44726;-94
2021/07/20 02:00:59;;;;;;;;;18.00;16.75;;;;;24.83;50.89;101525.97;4983838;28;44917;-93
2021/07/20 02:09:00;;;;;;;;;16.75;15.50;;;;;24.70;51.77;101509.59;4995214;28;44875;-94
2021/07/20 02:11:31;;;;;;;;;17.25;14.00;;;;;24.71;51.37;101522.09;4973692;28;45305;-94
2021/07/20 02:14:07;;;;;;;;;16.50;16.00;;;;;24.67;51.30;101520.47;4970199;28;47004;-94
2021/07/20 02:16:38;;;;;;;;;14.25;14.25;;;;;24.60;51.64;101514.53;4971131;28;45479;-95
2021/07/20 02:19:19;;;;;;;;;14.00;14.00;;;;;24.63;51.51;101524.28;4972778;28;45271;-94
2021/07/20 02:21:52;;;;;;;;;18.00;15.50;;;;;24.55;51.60;101513.91;4985911;28;45483;-94
2021/07/20 02:24:31;;;;;;;;;;;;;;;;;;;;;
2021/07/20 02:27:13;;;;;;;;;18.25;15.75;;;;;24.51;52.09;101522.19;5001890;28;71778;-94
2021/07/20 02:29:46;;;;;;;;;14.50;13.25;;;;;24.46;52.16;101517.06;4992571;28;45555;-94
2021/07/20 02:32:25;;;;;;;;;;;;;;;;;;;;;
2021/07/20 02:35:06;;;;;;;;;;;;;;;;;;;;;
2021/07/20 02:37:39;;;;;;;;;11.25;11.25;;;;;24.40;52.56;101511.94;4967801;28;72019;-93
2021/07/20 02:40:36;;;;;;;;;;;;;;;;;;;;;
2021/07/20 02:43:11;;;;;;;;;15.25;15.00;;;;;24.32;52.30;101503.38;4982612;28;73168;-93
2021/07/20 02:46:08;;;;;;;;;;;;;;;;;;;;;
2021/07/20 02:48:39;;;;;;;;;13.75;13.75;;;;;24.29;52.65;101516.97;4991707;28;73166;-94
2021/07/20 02:51:09;;;;;;;;;16.00;14.50;;;;;24.20;52.50;101504.84;4978411;28;44670;-93
2021/07/20 02:53:39;;;;;;;;;18.50;16.00;;;;;24.23;52.34;101515.47;4986684;28;44952;-94
2021/07/20 02:56:11;;;;;;;;;13.50;13.50;;;;;24.19;52.55;101516.53;4989199;28;47205;-94
2021/07/20 02:58:48;;;;;;;;;15.50;15.50;;;;;24.18;52.52;101517.50;4982006;28;45465;-95
2021/07/20 03:01:18;;;;;;;;;13.00;13.00;;;;;24.18;52.29;101514.81;4972956;28;44751;-94
2021/07/20 03:03:53;;;;;;;;;18.25;17.50;;;;;24.11;52.86;101506.19;4972699;28;45399;-93
2021/07/20 03:06:25;;;;;;;;;14.50;13.50;;;;;24.14;52.53;101519.47;4970834;28;46766;-93
2021/07/20 03:08:58;;;;;;;;;17.00;16.00;;;;;24.06;52.91;101510.00;4973384;28;45937;-94
2021/07/20 03:11:28;;;;;;;;;16.25;15.00;;;;;24.04;52.73;101518.16;4973269;28;44897;-93
2021/07/20 03:13:58;;;;;;;;;13.00;13.00;;;;;24.05;52.76;101527.09;4976319;28;45512;-94
2021/07/20 03:16:28;;;;;;;;;17.25;15.75;;;;;23.94;53.10;101509.66;5022227;22;47239;-94
2021/07/20 03:18:55;;;;;;;;;17.75;16.75;;;;;23.91;53.33;101517.00;5009962;28;45202;-95
2021/07/20 03:21:22;;;;;;;;;17.25;15.00;;;;;23.89;53.17;101516.19;5005422;28;45246;-93
2021/07/20 03:23:52;;;;;;;;;16.50;15.50;;;;;23.87;53.41;101515.38;5012716;28;44879;-94
2021/07/20 03:26:19;;;;;;;;;14.00;14.00;;;;;23.88;52.78;101523.41;5018899;28;47229;-93
2021/07/20 03:28:45;;;;;;;;;13.25;13.00;;;;;23.82;53.50;101515.63;4996222;28;44666;-94
2021/07/20 03:31:13;;;;;;;;;13.00;12.00;;;;;23.77;53.12;101520.34;5019254;28;45313;-94
2021/07/20 03:33:39;;;;;;;;;12.75;12.75;;;;;23.73;53.40;101516.03;5018761;28;45296;-94
2021/07/20 03:36:09;;;;;;;;;13.75;13.75;;;;;23.75;53.17;101528.47;5009765;28;46956;-94
2021/07/20 03:38:36;;;;;;;;;18.25;17.00;;;;;23.73;53.55;101513.34;4999678;28;44828;-94
2021/07/20 03:41:02;;;;;;;;;14.00;14.00;;;;;23.69;53.42;101522.47;5009013;28;45284;-94
2021/07/20 03:43:28;;;;;;;;;15.00;13.50;;;;;23.69;53.41;101519.78;5029692;28;45451;-94
2021/07/20 03:45:55;;;;;;;;;17.50;15.75;;;;;23.62;53.50;101516.50;5009372;28;47063;-94
2021/07/20 03:48:24;;;;;;;;;15.75;13.00;;;;;23.62;53.56;101518.31;4995428;28;45234;-94
2021/07/20 03:51:01;;;;;;;;;14.25;14.25;;;;;23.57;53.74;101515.84;5005236;28;45277;-94
2021/07/20 03:53:28;;;;;;;;;13.75;13.75;;;;;23.58;53.90;101522.09;5013867;28;45439;-95
2021/07/20 03:55:57;;;;;;;;;13.00;13.00;;;;;23.51;54.17;101511.63;5013794;28;47160;-94
2021/07/20 03:58:24;;;;;;;;;17.00;14.75;;;;;23.49;54.05;101516.19;5010248;28;45439;-94
2021/07/20 04:00:55;;;;;;;;;16.50;15.50;;;;;23.50;53.98;101522.44;4995397;28;45411;-94
2021/07/20 04:03:26;;;;;;;;;19.50;15.25;;;;;23.51;54.19;101522.38;4994033;28;45476;-93
2021/07/20 04:06:04;;;;;;;;;17.50;15.25;;;;;23.43;54.13;101520.97;5006993;28;47343;-94
2021/07/20 04:08:31;;;;;;;;;15.75;14.50;;;;;23.42;54.40;101527.31;5011164;28;45338;-94
2021/07/20 04:10:58;;;;;;;;;12.75;12.75;;;;;23.43;54.24;101535.28;4996062;28;45270;-93
2021/07/20 04:13:25;;;;;;;;;14.75;14.75;;;;;23.35;53.98;101529.38;5016375;28;44815;-96
2021/07/20 04:16:01;;;;;;;;;16.75;15.00;;;;;23.34;53.91;101528.50;5012914;28;47027;-93
2021/07/20 04:18:29;;;;;;;;;15.25;15.00;;;;;23.38;54.64;101534.59;5029241;28;45230;-94
2021/07/20 04:20:56;;;;;;;;;18.25;16.00;;;;;23.39;54.56;101540.84;5023407;28;45399;-94
2021/07/20 04:23:23;;;;;;;;;14.25;14.25;;;;;23.33;54.49;101537.53;5023410;28;45188;-95
2021/07/20 04:25:54;;;;;;;;;14.25;14.25;;;;;23.32;54.39;101541.13;5032100;28;47500;-93
2021/07/20 04:28:21;;;;;;;;;15.00;12.50;;;;;23.32;54.40;101542.94;5026776;28;45491;-93
2021/07/20 04:30:47;;;;;;;;;18.00;16.00;;;;;23.31;54.61;101544.78;5011704;28;45237;-93
2021/07/20 04:33:27;;;;;;;;;19.25;16.75;;;;;23.26;54.82;101533.34;5011794;28;45214;-94
2021/07/20 04:35:57;;;;;;;;;18.50;17.25;;;;;23.30;54.48;101542.13;5017003;28;46934;-94
2021/07/20 04:38:34;;;;;;;;;18.25;17.25;;;;;23.37;54.71;101558.88;5028922;28;45422;-93
2021/07/20 04:41:00;;;;;;;;;15.75;15.75;;;;;23.31;54.93;101550.16;5018299;28;45321;-94
2021/07/20 04:43:26;;;;;;;;;14.75;14.75;;;;;23.33;54.81;101555.44;5027593;28;45241;-94
2021/07/20 04:45:58;;;;;;;;;16.50;14.75;;;;;23.34;54.49;101551.81;5018263;28;46939;-93
2021/07/20 04:48:24;;;;;;;;;16.25;15.25;;;;;23.34;54.79;101555.38;5027801;28;45508;-93
2021/07/20 04:50:55;;;;;;;;;15.25;15.25;;;;;23.31;54.88;101546.59;5017501;28;45303;-94
2021/07/20 04:53:21;;;;;;;;;16.75;16.75;;;;;23.30;54.97;101542.13;5011809;28;45360;-93
2021/07/20 04:55:50;;;;;;;;;17.00;16.50;;;;;23.33;54.40;101550.97;5028129;28;47387;-93
2021/07/20 04:58:15;;;;;;;;;17.00;15.25;;;;;23.38;54.82;101558.78;5016236;28;45183;-88
2021/07/20 05:00:43;;;;;;;;;14.25;14.25;;;;;23.38;54.69;101552.56;5010653;28;45214;-88
2021/07/20 05:03:10;;;;;;;;;13.75;13.75;;;;;23.34;54.40;101551.81;5018622;28;44847;-84
2021/07/20 05:05:38;;;;;;;;;17.00;16.25;;;;;23.41;54.53;101560.47;5019474;28;47167;-86
2021/07/20 05:08:07;;;;;;;;;18.00;17.25;;;;;23.37;54.11;101551.69;5002091;28;45272;-86
2021/07/20 05:10:35;;;;;;;;;16.00;15.25;;;;;23.43;54.25;101572.03;5016241;28;45364;-88
2021/07/20 05:13:02;;;;;;;;;17.00;15.75;;;;;23.39;54.14;101565.94;5003464;28;45326;-86
2021/07/20 05:15:33;;;;;;;;;16.75;16.25;;;;;23.44;54.54;101576.47;5031971;28;47021;-90
2021/07/20 05:18:00;;;;;;;;;18.25;16.25;;;;;23.46;54.67;101566.53;5010499;28;45435;-88
2021/07/20 05:20:26;;;;;;;;;16.00;14.00;;;;;23.44;54.63;101561.25;5021221;28;45206;-91
2021/07/20 05:22:53;;;;;;;;;16.75;15.50;;;;;23.43;54.02;101556.78;5023144;28;45631;-89
2021/07/20 05:25:18;;;;;;;;;18.25;15.50;;;;;23.46;54.35;101566.53;5018406;28;48343;-89
2021/07/20 05:27:46;;;;;;;;;20.50;18.00;;;;;23.49;54.48;101563.69;5004725;28;45548;-91
2021/07/20 05:30:34;;;;;;;;;22.25;21.00;;;;;23.51;54.12;101567.19;5017846;28;45328;-87
2021/07/20 05:33:00;;;;;;;;;21.00;19.50;;;;;23.50;54.20;101565.47;5015370;28;45460;-87
2021/07/20 05:35:26;;;;;;;;;18.00;17.00;;;;;23.53;53.73;101570.69;5004598;28;45307;-84
2021/07/20 05:37:52;;;;;;;;;18.50;17.25;;;;;23.50;53.92;101566.31;5013122;28;45376;-88
2021/07/20 05:40:22;;;;;;;;;18.00;16.50;;;;;23.56;53.51;101571.41;5002980;28;45320;-86
2021/07/20 05:42:52;;;;;;;;;20.75;16.75;;;;;23.55;53.38;101572.38;5014040;28;45451;-85
2021/07/20 05:45:17;;;;;;;;;20.00;18.00;;;;;23.48;53.27;101562.81;5009515;28;47065;-89
2021/07/20 05:47:46;;;;;;;;;18.25;15.75;;;;;23.50;53.40;101566.31;5021365;28;45308;-88
2021/07/20 05:50:12;;;;;;;;;18.25;17.00;;;;;23.54;53.40;101567.06;5019432;28;45473;-88
2021/07/20 05:52:47;;;;;;;;;19.00;18.00;;;;;23.58;53.22;101573.19;5004103;28;45666;-89
2021/07/20 05:55:13;;;;;;;;;19.00;17.75;;;;;23.56;52.71;101582.16;5018258;28;47455;-89
2021/07/20 05:57:40;;;;;;;;;18.00;18.00;;;;;23.57;52.97;101585.72;5028043;28;45401;-87
2021/07/20 06:00:09;;;;;;;;;17.50;17.00;;;;;23.55;53.04;101579.56;5010606;28;45329;-88
2021/07/20 06:02:37;;;;;;;;;24.75;20.50;;;;;23.61;52.85;101589.19;5017655;28;45248;-89
2021/07/20 06:05:05;;;;;;;;;19.25;17.75;;;;;23.65;52.93;101585.38;5011163;28;47074;-87
2021/07/20 06:07:44;;;;;;;;;;;;;;;;;;;;;
2021/07/20 06:10:14;;;;;;;;;24.00;22.00;;;;;23.66;52.87;101579.97;5001231;28;67699;-84
2021/07/20 06:12:42;;;;;;;;;20.00;20.00;;;;;23.69;52.37;101582.50;5014362;28;45343;-84
2021/07/20 06:15:08;;;;;;;;;17.50;14.25;;;;;23.76;52.99;101591.19;5001474;28;46256;-84
2021/07/20 06:17:34;;;;;;;;;21.50;17.75;;;;;23.74;52.27;101590.41;5014043;28;46507;-84
2021/07/20 06:20:03;;;;;;;;;23.50;20.25;;;;;23.81;52.58;101593.66;5009837;28;45307;-84
2021/07/20 06:22:34;;;;;;;;;21.00;20.25;;;;;23.76;52.76;101583.13;5019313;28;46044;-85
2021/07/20 06:25:02;;;;;;;;;22.25;20.25;;;;;23.82;52.70;101593.63;5012783;28;46119;-84
2021/07/20 06:27:29;;;;;;;;;20.75;20.25;;;;;23.82;52.06;101596.31;5009676;28;45450;-85
2021/07/20 06:29:56;;;;;;;;;24.75;22.25;;;;;23.82;51.92;101588.22;5008127;28;45540;-84
2021/07/20 06:32:23;;;;;;;;;21.75;20.25;;;;;23.87;52.27;101598.75;5023686;28;46033;-83
2021/07/20 06:34:49;;;;;;;;;23.00;22.75;;;;;23.90;51.85;101594.13;5014391;28;46173;-84
2021/07/20 06:37:16;;;;;;;;;28.75;24.00;;;;;23.95;51.34;101607.34;5020357;28;45284;-84
2021/07/20 06:39:46;;;;;;;;;21.75;21.75;;;;;23.97;51.29;101595.56;5021460;28;45511;-84
2021/07/20 06:42:12;;;;;;;;;29.50;27.75;;;;;23.99;51.10;101600.91;5019945;28;45661;-84
2021/07/20 06:44:40;;;;;;;;;25.75;23.25;;;;;24.05;50.76;101603.28;5021433;28;46325;-84
2021/07/20 06:47:06;;;;;;;;;30.75;27.75;;;;;24.08;50.56;101599.59;5020141;28;45257;-85
2021/07/20 06:49:34;;;;;;;;;30.50;26.50;;;;;24.12;50.45;101598.53;5020157;28;45363;-84
2021/07/20 06:52:00;;;;;;;;;25.75;23.00;;;;;24.16;50.35;101609.06;5014211;28;45482;-84
2021/07/20 06:54:25;;;;;;;;;28.75;26.00;;;;;24.17;49.38;101599.19;5000909;28;46131;-84
2021/07/20 06:56:55;;;;;;;;;33.50;29.50;;;;;24.15;49.73;101601.06;5004565;28;45440;-84
2021/07/20 06:59:27;;;;;;;;;31.50;30.00;;;;;24.18;49.19;101599.09;5003425;28;45284;-84
2021/07/20 07:01:53;;;;;;;;;29.25;24.00;;;;;24.25;48.96;101606.91;5019521;28;45607;-84
2021/07/20 07:04:34;;;;;;;;;20.25;18.00;;;;;24.31;48.65;101607.47;5001642;28;45485;-84
2021/07/20 07:07:01;;;;;;;;;28.75;25.75;;;;;24.31;48.10;101607.47;5018166;28;45350;-84
2021/07/20 07:09:28;;;;;;;;;30.00;29.25;;;;;24.36;48.38;101615.31;4998723;28;45407;-84
2021/07/20 07:11:57;;;;;;;;;33.25;28.25;;;;;24.38;48.18;101613.44;5002864;28;45265;-81
2021/07/20 07:14:23;;;;;;;;;38.75;33.25;;;;;24.45;47.89;101606.84;5017652;28;47180;-87
2021/07/20 07:16:54;;;;;;;;;29.50;25.50;;;;;24.54;47.93;101614.47;5021335;28;45482;-89
2021/07/20 07:19:22;;;;;;;;;34.75;28.50;;;;;24.61;47.90;101609.66;5014894;28;45182;-88
2021/07/20 07:21:50;;;;;;;;;29.75;26.25;;;;;24.73;47.54;101618.97;5013457;28;45559;-88
2021/07/20 07:24:16;;;;;;;;;31.50;27.75;;;;;24.78;47.40;101615.09;5015510;28;46998;-87
2021/07/20 07:26:43;;;;;;;;;31.25;29.00;;;;;24.87;46.70;101622.72;5008473;28;45408;-88
2021/07/20 07:29:10;;;;;;;;;33.25;30.00;;;;;24.93;46.68;101616.16;5021693;28;45297;-91
2021/07/20 07:31:37;;;;;;;;;31.75;28.50;;;;;24.99;45.53;101614.97;5028385;28;45933;-88
2021/07/20 07:34:02;;;;;;;;;34.50;29.25;;;;;25.08;44.97;101622.59;5001866;28;46290;-89
2021/07/20 07:36:29;;;;;;;;;31.50;29.75;;;;;25.08;45.24;101628.00;5014525;28;45531;-88
2021/07/20 07:38:58;;;;;;;;;24.00;23.25;;;;;25.09;45.31;101617.13;5007677;28;45271;-90
2021/07/20 07:41:38;;;;;;;;;;;;;;;;;;;;;
2021/07/20 07:44:06;;;;;;;;;30.25;25.00;;;;;25.26;45.35;101623.50;5010735;28;75055;-90
2021/07/20 07:46:37;;;;;;;;;28.50;27.75;;;;;25.34;45.14;101631.19;5020713;28;45345;-94
2021/07/20 07:49:04;;;;;;;;;32.00;27.00;;;;;25.36;44.86;101622.09;5013484;28;45439;-96
2021/07/20 07:51:29;;;;;;;;;25.00;23.50;;;;;25.48;44.86;101637.63;5003929;28;45385;-94
2021/07/20 07:53:58;;;;;;;;;26.50;23.00;;;;;25.56;44.84;101628.28;5003488;28;47528;-94
2021/07/20 07:56:31;;;;;;;;;23.50;23.50;;;;;25.63;44.83;101630.53;5007280;28;45251;-96
2021/07/20 07:59:08;;;;;;;;;24.00;21.50;;;;;25.66;43.87;101626.81;5008194;28;45287;-94
2021/07/20 08:02:08;;;;;;;;;26.00;26.00;;;;;25.75;44.03;101629.91;5022534;28;44859;-96
2021/07/20 08:07:30;;;;;;;;;27.75;25.75;;;;;25.93;44.03;101627.22;5003041;23;46384;-94
2021/07/20 08:09:59;;;;;;;;;25.75;24.25;;;;;26.04;43.87;101621.25;4971185;28;44911;-95
2021/07/20 08:15:10;;;;;;;;;;;;;;;;;;;;;
2021/07/20 08:18:40;;;;;;;;;;;;;;;;;;;;;
2021/07/20 08:24:54;;;;;;;;;;;;;;;;;;;;;
2021/07/20 08:27:45;;;;;;;;;;;;;;;;;;;;;
2021/07/20 08:31:01;;;;;;;;;;;;;;;;;;;;;
2021/07/20 08:37:28;;;;;;;;;21.75;21.50;;;;;27.01;41.27;101630.16;4989350;28;44796;-90
2021/07/20 08:40:03;;;;;;;;;25.75;22.25;;;;;27.12;41.03;101626.84;4970259;28;46755;-89
2021/07/20 08:43:00;;;;;;;;;27.25;25.25;;;;;27.25;41.08;101622.47;4976285;28;45476;-90
2021/07/20 08:45:37;;;;;;;;;23.75;23.25;;;;;27.31;40.34;101626.63;4980984;28;45438;-87
2021/07/20 08:48:31;;;;;;;;;21.75;21.25;;;;;27.39;40.18;101632.44;4983239;28;45373;-80
2021/07/20 08:51:05;;;;;;;;;20.75;20.00;;;;;27.45;40.35;101624.84;4963975;28;47100;-81
2021/07/20 08:53:49;;;;;;;;;24.75;23.25;;;;;27.53;40.00;101629.78;4964579;28;45431;-81
2021/07/20 08:56:18;;;;;;;;;23.00;22.25;;;;;27.60;39.72;101627.56;4981645;28;45381;-80
2021/07/20 08:59:03;;;;;;;;;;;;;;;;;;;;;
2021/07/20 09:02:29;;;;;;;;;;;;;;;;;;;;;
2021/07/20 09:08:41;;;;;;;;;19.75;17.25;;;;;27.63;38.78;101625.53;4911590;28;45588;-81
2021/07/20 09:11:30;;;;;;;;;25.75;23.25;;;;;27.63;39.68;101625.53;4963024;28;45243;-83
2021/07/20 09:14:16;;;;;;;;;20.50;18.50;;;;;27.77;39.72;101635.50;4963514;28;47513;-80
2021/07/20 09:16:46;;;;;;;;;21.75;19.75;;;;;27.85;39.45;101633.25;4988929;28;45399;-80
2021/07/20 09:20:03;;;;;;;;;20.50;19.50;;;;;27.92;39.32;101626.47;4967732;28;45277;-83
2021/07/20 09:22:47;;;;;;;;;;;;;;;;;;;;;
2021/07/20 09:25:43;;;;;;;;;20.50;20.25;;;;;28.07;39.10;101635.47;4878205;29;74135;-89
2021/07/20 09:28:33;;;;;;;;;25.00;21.75;;;;;28.15;38.55;101640.41;4884146;29;45388;-82
2021/07/20 09:31:01;;;;;;;;;19.75;18.75;;;;;28.18;39.35;101633.94;4883584;29;45456;-81
2021/07/20 09:33:41;;;;;;;;;21.00;19.25;;;;;28.18;38.94;101637.50;4979682;28;45245;-83
2021/07/20 09:36:32;;;;;;;;;25.75;25.00;;;;;28.17;39.12;101633.03;4981372;28;45531;-80
2021/07/20 09:39:01;;;;;;;;;24.75;21.50;;;;;28.20;39.18;101643.72;4981796;28;45479;-80
2021/07/20 09:41:47;;;;;;;;;23.00;20.25;;;;;28.27;39.08;101628.78;4981972;28;45231;-82
2021/07/20 09:44:42;;;;;;;;;26.00;24.50;;;;;28.40;39.32;101630.72;4972930;28;45607;-81
2021/07/20 09:47:25;;;;;;;;;24.75;23.25;;;;;28.42;38.71;101620.66;4963152;28;47307;-81
2021/07/20 09:50:03;;;;;;;;;19.50;18.50;;;;;28.37;39.49;101624.50;4981054;28;45441;-80
2021/07/20 09:52:37;;;;;;;;;24.50;22.00;;;;;28.47;38.65;101629.34;4981208;28;45193;-81
2021/07/20 09:55:28;;;;;;;;;28.00;22.50;;;;;28.55;38.63;101630.63;4963152;28;45263;-77
2021/07/20 09:58:23;;;;;;;;;26.50;22.50;;;;;28.63;38.80;101616.56;4962257;28;48384;-78
2021/07/20 10:01:14;;;;;;;;;23.50;20.75;;;;;28.78;38.44;101620.94;4979670;28;45481;-78
2021/07/20 10:04:01;;;;;;;;;24.00;22.25;;;;;28.79;38.53;101617.28;4929199;28;45234;-78
2021/07/20 10:06:43;;;;;;;;;22.50;21.50;;;;;28.88;38.40;101617.66;4963929;28;45534;-81
2021/07/20 10:09:27;;;;;;;;;21.25;20.00;;;;;28.92;38.69;101621.88;4963382;28;48140;-79
2021/07/20 10:12:23;;;;;;;;;20.75;19.75;;;;;29.04;38.12;101618.38;4963193;28;45288;-78
2021/07/20 10:15:07;;;;;;;;;22.75;21.25;;;;;29.14;38.06;101599.66;4980536;28;45729;-80
2021/07/20 10:17:54;;;;;;;;;23.75;19.75;;;;;29.20;37.71;101608.22;4962214;28;45583;-80
2021/07/20 10:20:21;;;;;;;;;21.75;19.50;;;;;29.20;37.12;101607.34;4962684;28;46413;-79
2021/07/20 10:23:08;;;;;;;;;21.25;20.75;;;;;29.23;37.33;101612.56;4963154;28;45340;-84
2021/07/20 10:26:05;;;;;;;;;22.25;20.25;;;;;29.33;37.66;101605.53;4965060;28;45457;-88
2021/07/20 10:28:40;;;;;;;;;22.25;22.00;;;;;29.49;37.82;101599.91;4982488;28;45476;-86
2021/07/20 10:31:14;;;;;;;;;24.25;20.25;;;;;29.65;37.09;101603.31;4965318;28;46537;-86
2021/07/20 10:33:51;;;;;;;;;19.25;18.25;;;;;29.75;37.86;101589.97;4980854;28;45486;-82
2021/07/20 10:36:23;;;;;;;;;21.75;20.50;;;;;29.92;36.90;101593.31;4982193;28;45337;-85
2021/07/20 10:38:52;;;;;;;;;18.50;17.75;;;;;30.04;37.05;101589.72;4963760;28;45520;-84
2021/07/20 10:41:24;;;;;;;;;16.75;16.00;;;;;30.17;36.04;101597.84;4963660;28;47948;-83
2021/07/20 10:43:59;;;;;;;;;17.25;16.75;;;;;30.32;36.35;101591.31;4994828;28;45197;-85
2021/07/20 10:46:31;;;;;;;;;17.25;17.25;;;;;30.44;36.25;101590.41;4982446;28;45420;-84
2021/07/20 10:49:06;;;;;;;;;19.25;18.00;;;;;30.51;36.16;101588.97;4993620;28;45358;-86
2021/07/20 10:51:41;;;;;;;;;23.00;19.00;;;;;30.51;35.51;101588.09;4980607;28;45278;-87
2021/07/20 10:54:34;;;;;;;;;21.25;18.50;;;;;30.48;35.23;101588.34;4963534;28;45567;-86
2021/07/20 10:56:59;;;;;;;;;14.25;13.25;;;;;30.52;34.96;101593.41;4964643;28;45275;-87
2021/07/20 10:59:54;;;;;;;;;16.75;16.00;;;;;30.62;34.95;101573.72;4964745;28;45282;-88
2021/07/20 11:02:23;;;;;;;;;17.25;15.25;;;;;30.80;33.64;101585.06;4971631;28;45394;-86
2021/07/20 11:05:05;;;;;;;;;15.50;14.25;;;;;30.88;33.68;101575.34;4981660;28;45242;-88
2021/07/20 11:07:45;;;;;;;;;19.50;19.50;;;;;30.93;32.88;101583.16;4977959;28;45412;-88
2021/07/20 11:10:20;;;;;;;;;14.75;14.75;;;;;30.87;33.87;101584.47;4963341;28;45484;-85
2021/07/20 11:12:49;;;;;;;;;22.25;19.25;;;;;30.98;34.04;101590.00;4985372;28;45440;-85
2021/07/20 11:15:16;;;;;;;;;20.50;17.25;;;;;31.07;34.19;101577.53;4966783;28;45275;-85
2021/07/20 11:17:44;;;;;;;;;18.50;18.00;;;;;31.27;34.37;101577.81;4984231;28;45354;-87
2021/07/20 11:20:13;;;;;;;;;17.50;17.50;;;;;31.37;33.98;101566.13;4982592;28;45253;-87
2021/07/20 11:22:41;;;;;;;;;20.25;16.25;;;;;31.57;33.47;101570.00;4970404;28;47126;-87
2021/07/20 11:25:08;;;;;;;;;20.25;18.00;;;;;31.67;34.02;101575.56;4987477;28;45412;-87
2021/07/20 11:27:39;;;;;;;;;17.00;16.50;;;;;31.82;33.12;101576.22;4963457;28;45464;-85
2021/07/20 11:30:08;;;;;;;;;19.00;16.50;;;;;31.97;32.82;101575.00;4977945;28;45464;-84
2021/07/20 11:32:36;;;;;;;;;21.00;17.25;;;;;32.02;33.22;101572.78;4966384;28;48370;-85
2021/07/20 11:35:08;;;;;;;;;19.75;17.00;;;;;32.02;33.03;101564.59;4984140;28;45391;-85
2021/07/20 11:37:39;;;;;;;;;17.25;16.25;;;;;31.95;32.46;101560.63;4985014;28;45428;-86
2021/07/20 11:40:08;;;;;;;;;20.75;15.00;;;;;31.92;32.89;101552.72;4967628;28;45741;-82
2021/07/20 11:42:45;;;;;;;;;12.50;12.00;;;;;32.04;33.08;101564.47;4972427;28;46290;-87
2021/07/20 11:45:13;;;;;;;;;20.75;19.50;;;;;32.17;32.00;101562.47;4972669;28;45588;-84
2021/07/20 11:47:48;;;;;;;;;18.25;15.00;;;;;32.16;31.41;101563.47;4974630;28;45478;-89
2021/07/20 11:50:18;;;;;;;;;18.25;16.50;;;;;32.23;32.18;101561.09;4990327;28;45190;-88
2021/07/20 11:52:47;;;;;;;;;20.25;18.25;;;;;32.35;32.46;101570.13;4990469;28;47455;-87
2021/07/20 11:55:33;;;;;;;;;14.00;14.00;;;;;32.46;31.25;101570.97;4976141;28;45570;-87
2021/07/20 11:58:01;;;;;;;;;14.50;13.75;;;;;32.46;31.15;101556.47;4982489;28;45487;-89
2021/07/20 12:00:42;;;;;;;;;13.50;13.25;;;;;32.57;30.46;101555.59;4984388;28;45523;-90
2021/07/20 12:03:32;;;;;;;;;13.50;13.50;;;;;32.62;30.89;101553.34;4974951;28;48236;-87
2021/07/20 12:06:01;;;;;;;;;13.50;12.50;;;;;32.75;30.40;101559.50;4978742;28;45354;-89
2021/07/20 12:08:57;;;;;;;;;15.75;14.75;;;;;32.89;30.54;101555.59;4985884;28;45413;-89
2021/07/20 12:11:30;;;;;;;;;13.50;11.50;;;;;33.10;30.78;101548.31;4980198;28;45389;-89
2021/07/20 12:14:02;;;;;;;;;15.25;13.50;;;;;33.19;30.67;101556.72;4989515;28;45459;-87
2021/07/20 12:16:30;;;;;;;;;16.75;14.75;;;;;33.31;30.01;101553.78;4993878;28;45468;-88
2021/07/20 12:18:56;;;;;;;;;15.75;15.00;;;;;33.45;30.50;101557.16;4978884;28;45239;-89
2021/07/20 12:21:24;;;;;;;;;14.75;14.75;;;;;33.57;28.31;101554.25;4972994;28;45545;-89
2021/07/20 12:23:54;;;;;;;;;15.50;13.50;;;;;33.54;28.66;101548.19;4984679;28;45510;-89
2021/07/20 12:26:22;;;;;;;;;16.50;14.00;;;;;33.53;29.63;101555.50;4995420;28;45349;-88